Allegheny County Airport
KAGC : rendu visible

Aérodrome :











RETROUVEZ-NOUS SUR...

 
LOGIN :

S'inscrire | Disclaimer

   EN    FR    IT 

 









Légende :    VFR   VFR Marginal   IFR   IFR Intensif   IFR Très Intensif
Visi : 
Plafond : 
>= 8 km
>= 3000ft
5 à 8 km
1000 à 3000 ft
1500m à 5 km
500 à 1000 ft
800 à 1500m
200 à 500 ft
< 800m
< 200 ft
Symboles :   Orages  Brouillard  Fortes neiges  Fortes précipitations  Vent > 20 kt






- Altitude de l'aérodrome : 1252 ft
- Code IATA : AGC


KAGC - Allegheny County

DERNIER METAR :
  • 100753Z 29010G19KT 3SM -RA BR FEW012 BKN028 OVC044 12/11 A2968 RMK AO2 PK WND 28026/0729 RAB16 SLP057 P0006 T01170106 $

METARs EXPIRÉS :
  • 100739Z 29010G24KT 260V320 3SM -RA BR SCT012 BKN017 OVC029 12/11 A2968 RMK AO2 PK WND 28026/0729 RAB16 P0006 T01220106 $
  • 100732Z 30010G26KT 3SM -RA BR FEW010 BKN014 OVC025 13/11 A2967 RMK AO2 PK WND 28026/0729 RAB16 P0006 T01280111 $
  • 100726Z 25012G20KT 1 3/4SM +RA BR SCT016 BKN025 OVC042 13/12 A2967 RMK AO2 RAB16 PRESRR P0005 T01330117 $
  • 100716Z 22012G19KT 10SM -RA BKN026 BKN040 OVC055 14/11 A2965 RMK AO2 RAB16 P0000 T01390111 $
  • 100653Z 22014G20KT 10SM SCT022 BKN037 OVC055 14/12 A2964 RMK AO2 RAB33E43 SLP041 P0000 T01390117 $
  • 100612Z AUTO 22013G23KT 10SM BKN023 BKN031 OVC050 14/12 A2964 RMK AO2 T01390117 $
  • 100553Z AUTO 22014G22KT 10SM FEW021 BKN032 OVC050 14/12 A2964 RMK AO2 RAE0458 SLP040 P0000 60016 T01390117 10139 20128 51006 $
  • 100522Z 14/12 A2963 RMK AO2 RAE0458 P0000 T01390117 $

TAF KAGC
Valide du 10 à 06h jusqu'au 11 à 06h UTC


100617Z 1006/1106 24012G22KT P6SM OVC025 WS020/23045KT
TEMPO 1006/1008 3SM -RA BKN010
FM100900 24012G25KT P6SM OVC015
FM101300 27012G22KT P6SM OVC015
FM101900 27012G20KT P6SM OVC025
FM110400 27006KT P6SM BKN035



MET'MAP, la Météo Aéronautique d'un coup d'oeil ! - Copyright ORBIFLY Décembre 2007 - Disclaimer

ORBIFLY MET'MAP TEAM :

Programmation & Développement : Alexandra Zaïnal
Sur une idée originale de : Baudouin d'Aumeries
Assistance à la programmation : Marc-Olivier Méhu
Soutien technique & logistique : Manuel Goepfert

Contact : metmap@orbifly.com




SOURCES & CREDITS :

   NOAA       Earth
Advisory